Data for 10/01/2006

Time Sea-Level Adjusted Pressure Absolute Pressure Temperature Relative Humidity Dew Point   
(mb) (inHg) (mb) (inHg) (C) (F) (%) (C) (F)
00:05 1013 29.91 842 24.86 18.5 65.3 19 -5.3 22.5
00:10 1013 29.91 842 24.86 18.3 65 19 -5.5 22.1
00:15 1013 29.91 842 24.86 18.6 65.4 19 -5.7 21.8
00:20 1013 29.91 842 24.86 18.7 65.6 19 -5.4 22.3
00:25 1013 29.91 842 24.86 18.4 65.1 20 -5 23
00:30 1013 29.91 842 24.86 18.3 64.9 19 -5.6 21.8
00:35 1013 29.91 842 24.86 18.7 65.6 17 -6.8 19.8
00:40 1013 29.91 842 24.86 19.9 67.7 15 -7.3 18.9
00:45 1013 29.91 842 24.86 19.8 67.6 16 -6.6 20.1
00:50 1013 29.91 842 24.86 19.2 66.5 17 -6.2 20.8
00:55 1013 29.91 842 24.86 19.2 66.5 18 -5.8 21.6
01:00 1013 29.91 842 24.86 18.1 64.6 23 -3 26.6
01:05 1013 29.91 842 24.86 16.2 61.2 26 -3.2 26.2
01:10 1013 29.91 842 24.86 15.4 59.7 26 -3.7 25.4
01:15 1013 29.91 842 24.86 15.5 59.8 26 -3.9 25.1
01:20 1013 29.91 842 24.86 15.8 60.5 24 -4.5 23.8
01:25 1013 29.91 842 24.86 16.2 61.2 24 -4.3 24.2
01:30 1013 29.91 842 24.86 15.9 60.7 26 -3.5 25.7
01:35 1013 29.91 842 24.86 15.6 60 26 -3.8 25.2
01:40 1013 29.91 843 24.89 15.2 59.4 28 -3.2 26.2
01:45 1013 29.91 843 24.89 15 59.1 27 -3.9 24.9
01:50 1013 29.91 843 24.89 15.5 59.9 26 -4 24.7
01:55 1013 29.91 843 24.89 15.7 60.3 25 -4 24.9
02:00 1013 29.91 843 24.89 15.6 60 26 -3.6 25.5
02:05 1013 29.91 843 24.89 15.3 59.5 26 -3.8 25.2
02:10 1013 29.91 843 24.89 15 59.1 26 -4.2 24.4
02:15 1014 29.94 843 24.89 15.2 59.4 25 -4.7 23.5
02:20 1014 29.94 843 24.89 15.4 59.7 29 -2.2 28
02:25 1014 29.94 843 24.89 15.3 59.5 27 -3.4 25.9
02:30 1014 29.94 843 24.89 14.5 58.1 29 -3.4 25.9
02:35 1014 29.94 843 24.89 14.1 57.3 27 -4.4 24.2
02:40 1014 29.94 843 24.89 14.5 58.1 25 -5 23
02:45 1014 29.94 843 24.89 14.8 58.6 28 -3.5 25.7
02:50 1014 29.94 843 24.89 14.3 57.7 32 -2.3 27.9
02:55 1014 29.94 843 24.89 13.8 56.8 30 -3.6 25.5
03:00 1014 29.94 843 24.89 13.6 56.5 30 -3.5 25.6
03:05 1014 29.94 843 24.89 13.2 55.7 31 -3.6 25.6
03:10 1014 29.94 843 24.89 12.8 55.1 31 -3.9 25
03:15 1014 29.94 843 24.89 12.7 54.9 32 -3.7 25.4
03:20 1014 29.94 843 24.89 12.4 54.2 33 -3.5 25.7
03:25 1014 29.94 843 24.89 12 53.7 34 -3.3 26.1
03:30 1014 29.94 843 24.89 11.6 52.8 35 -3.5 25.7
03:35 1014 29.94 843 24.89 11.4 52.6 35 -3.4 25.9
03:40 1014 29.94 843 24.89 11.4 52.5 34 -3.7 25.4
03:45 1014 29.94 843 24.89 11.5 52.7 35 -3.3 26.1
03:50 1014 29.94 843 24.89 11.3 52.3 36 -3.1 26.4
03:55 1014 29.94 843 24.89 11.1 52 36 -3.2 26.3
04:00 1014 29.94 843 24.89 10.8 51.4 38 -2.8 27
04:05 1014 29.94 843 24.89 10.2 50.4 41 -2.5 27.5
04:10 1014 29.94 843 24.89 10 50 41 -2.6 27.2
04:15 1014 29.94 843 24.89 9.9 49.9 40 -3 26.5
04:20 1014 29.94 843 24.89 10.4 50.7 40 -2.7 27.2
04:25 1014 29.94 843 24.89 10.7 51.2 38 -3 26.6
04:30 1014 29.94 843 24.89 10.8 51.4 39 -2.7 27.2
04:35 1014 29.94 843 24.89 10.6 51.1 39 -2.7 27.2
04:40 1014 29.94 843 24.89 10.7 51.2 40 -2.5 27.6
04:45 1014 29.94 843 24.89 10.1 50.2 42 -2.3 27.9
04:50 1014 29.94 843 24.89 9.5 49.1 43 -2.5 27.6
04:55 1014 29.94 843 24.89 9.3 48.8 43 -2.5 27.5
05:00 1014 29.94 843 24.89 9.2 48.5 44 -2.4 27.6
05:05 1014 29.94 843 24.89 9.1 48.3 44 -2.3 27.8
05:10 1014 29.94 843 24.89 9.1 48.4 44 -2.4 27.6
05:15 1014 29.94 843 24.89 8.9 48.1 45 -2.4 27.7
05:20 1014 29.94 843 24.89 8.8 47.8 45 -2.4 27.6
05:25 1014 29.94 843 24.89 8.7 47.7 45 -2.4 27.6
05:30 1014 29.94 843 24.89 8.6 47.5 46 -2.2 28
05:35 1014 29.94 843 24.89 8.5 47.3 46 -2.4 27.8
05:40 1014 29.94 843 24.89 8.6 47.5 45 -2.5 27.4
05:45 1014 29.94 843 24.89 8.7 47.7 45 -2.4 27.7
05:50 1014 29.94 843 24.89 8.9 47.9 45 -2.4 27.6
05:55 1014 29.94 843 24.89 9 48.2 44 -2.7 27.2
06:00 1014 29.94 844 24.92 9 48.3 44 -2.5 27.4
06:05 1014 29.94 844 24.92 9 48.2 44 -2.6 27.4
06:10 1014 29.94 844 24.92 8.9 48.1 44 -2.7 27.1
06:15 1014 29.94 844 24.92 8.8 47.8 44 -2.6 27.3
06:20 1014 29.94 844 24.92 8.6 47.4 46 -2.3 27.9
06:25 1014 29.94 844 24.92 8.2 46.8 45 -3 26.6
06:30 1014 29.94 844 24.92 9.1 48.3 39 -4 24.8
06:35 1014 29.94 844 24.92 9.8 49.7 37 -4.1 24.6
06:40 1014 29.94 844 24.92 10 50 39 -3.3 26.1
06:45 1014 29.94 844 24.92 9.7 49.4 40 -3.2 26.3
06:50 1014 29.94 844 24.92 9.3 48.8 40 -3.5 25.7
06:55 1014 29.94 844 24.92 9.3 48.7 40 -3.7 25.3
07:00 1015 29.97 844 24.92 9.3 48.8 40 -3.6 25.5
07:05 1015 29.97 844 24.92 9.4 48.8 40 -3.4 25.8
07:10 1015 29.97 844 24.92 9.2 48.6 41 -3.4 25.8
07:15 1015 29.97 844 24.92 9.3 48.7 40 -3.5 25.7
07:20 1015 29.97 844 24.92 9.5 49.2 40 -3.5 25.7
07:25 1015 29.97 844 24.92 9.7 49.5 38 -4 24.8
07:30 1015 29.97 844 24.92 10.1 50.1 37 -3.8 25.1
07:35 1015 29.97 844 24.92 10.1 50.2 38 -3.7 25.4
07:40 1015 29.97 844 24.92 10 49.9 38 -3.8 25.2
07:45 1015 29.97 844 24.92 10 50.1 39 -3.3 26.1
07:50 1015 29.97 844 24.92 9.8 49.6 40 -3.3 26.1
07:55 1015 29.97 844 24.92 9.8 49.7 39 -3.6 25.6
08:00 1015 29.97 844 24.92 10.1 50.3 38 -3.4 25.8
08:05 1015 29.97 844 24.92 10 50.1 40 -3 26.6
08:10 1015 29.97 844 24.92 9.8 49.7 40 -3.2 26.2
08:15 1015 29.97 844 24.92 9.9 49.8 40 -3.1 26.5
08:20 1015 29.97 844 24.92 9.8 49.6 40 -3 26.6
08:25 1015 29.97 844 24.92 9.9 49.9 39 -3.2 26.3
08:30 1015 29.97 844 24.92 10.2 50.3 39 -3 26.6
08:35 1015 29.97 844 24.92 10.4 50.7 39 -2.8 26.9
08:40 1015 29.97 844 24.92 10.7 51.2 39 -2.6 27.3
08:45 1015 29.97 844 24.92 10.9 51.7 38 -2.7 27.1
08:50 1015 29.97 844 24.92 11.3 52.3 38 -2.5 27.5
08:55 1015 29.97 844 24.92 11.6 52.8 37 -2.6 27.2
09:00 1015 29.97 844 24.92 12 53.7 35 -2.9 26.8
09:05 1015 29.97 844 24.92 12.3 54.2 38 -1.6 29.1
09:10 1015 29.97 844 24.92 12.6 54.7 35 -2.2 28
09:15 1015 29.97 844 24.92 12.8 55 36 -1.9 28.6
09:20 1015 29.97 844 24.92 12.9 55.2 35 -2 28.5
09:25 1015 29.97 844 24.92 13.4 56 34 -1.9 28.6
09:30 1015 29.97 845 24.95 13.9 57 35 -1.4 29.6
09:35 1015 29.97 845 24.95 14.1 57.4 33 -1.7 29
09:40 1015 29.97 844 24.92 14.7 58.5 33 -1.3 29.7
09:45 1015 29.97 845 24.95 14.8 58.7 31 -1.9 28.5
09:50 1015 29.97 845 24.95 15.1 59.2 30 -2.1 28.2
09:55 1015 29.97 845 24.95 15.9 60.5 29 -1.8 28.7
10:00 1015 29.97 845 24.95 16.7 62.1 30 -0.6 30.8
10:05 1015 29.97 845 24.95 17.6 63.6 28 -1.1 30
10:10 1015 29.97 845 24.95 17.7 63.9 27 -1.2 29.9
10:15 1015 29.97 845 24.95 17.7 63.8 26 -1.8 28.8
10:20 1015 29.97 845 24.95 17.3 63.2 27 -1.8 28.8
10:25 1015 29.97 845 24.95 17.7 63.8 26 -2.1 28.3
10:30 1015 29.97 845 24.95 18.2 64.7 23 -3 26.6
10:35 1015 29.97 845 24.95 18.6 65.4 23 -2.7 27.2
10:40 1015 29.97 845 24.95 17.9 64.1 25 -2.4 27.6
10:45 1015 29.97 845 24.95 18 64.3 25 -2.4 27.7
10:50 1015 29.97 845 24.95 18.5 65.3 25 -1.6 29
10:55 1015 29.97 845 24.95 18.2 64.8 26 -1.6 29
11:00 1015 29.97 845 24.95 18.4 65.1 26 -1.5 29.4
11:05 1015 29.97 845 24.95 19.1 66.4 25 -1.3 29.7
11:10 1015 29.97 845 24.95 19 66.1 25 -1.1 30
11:15 1015 29.97 845 24.95 19.2 66.6 24 -1.8 28.8
11:20 1015 29.97 845 24.95 19.3 66.8 24 -1.5 29.4
11:25 1015 29.97 845 24.95 19.7 67.4 23 -2 28.4
11:30 1015 29.97 845 24.95 19.7 67.4 22 -2.5 27.4
11:35 1015 29.97 844 24.92 19.9 67.8 22 -2.5 27.5
11:40 1015 29.97 844 24.92 20.5 68.8 21 -2.1 28.1
11:45 1015 29.97 844 24.92 20.5 68.9 23 -1.3 29.7
11:50 1015 29.97 844 24.92 20.4 68.7 23 -1.4 29.4
11:55 1015 29.97 844 24.92 20.3 68.6 23 -1.6 29.2
12:00 1015 29.97 844 24.92 21.1 69.9 21 -1.9 28.6
12:05 1015 29.97 844 24.92 21.5 70.8 21 -1.3 29.6
12:10 1015 29.97 844 24.92 21.2 70.2 23 -0.9 30.5
12:15 1015 29.97 844 24.92 21 69.9 21 -1.8 28.7
12:20 1015 29.97 844 24.92 21 69.7 21 -1.7 28.9
12:25 1015 29.97 844 24.92 21.4 70.5 22 -1.1 30
12:30 1015 29.97 844 24.92 21.6 70.9 21 -1.7 29
12:35 1015 29.97 844 24.92 21.4 70.6 21 -1.6 29.2
12:40 1015 29.97 844 24.92 22.2 71.9 20 -1.9 28.6
12:45 1015 29.97 844 24.92 22 71.6 20 -1.7 28.9
12:50 1015 29.97 844 24.92 21.6 70.8 21 -1.3 29.6
12:55 1015 29.97 844 24.92 21.7 71.1 20 -1.9 28.7
13:00 1015 29.97 844 24.92 21.5 70.7 22 -1.2 29.8
13:05 1015 29.97 844 24.92 21.3 70.3 21 -1.7 28.9
13:10 1015 29.97 844 24.92 21.2 70.2 21 -1.9 28.5
13:15 1015 29.97 844 24.92 20.2 68.3 23 -1.2 29.8
13:20 1015 29.97 844 24.92 21 69.7 20 -2.4 27.7
13:25 1015 29.97 844 24.92 21.8 71.2 19 -2.9 26.7
13:30 1015 29.97 844 24.92 21.2 70.2 21 -1.6 29.2
13:35 1014 29.94 844 24.92 21.7 71.1 18 -3.1 26.5
13:40 1014 29.94 844 24.92 22.1 71.7 18 -3.1 26.4
13:45 1014 29.94 844 24.92 22 71.5 21 -1.2 29.8
13:50 1014 29.94 844 24.92 21.7 71 20 -2.3 27.9
13:55 1014 29.94 843 24.89 21.2 70.2 21 -1.7 28.9
14:00 1014 29.94 843 24.89 22.3 72.1 19 -2.1 28.2
14:05 1014 29.94 843 24.89 22.6 72.7 20 -1.4 29.4
14:10 1014 29.94 843 24.89 22.5 72.4 20 -1.6 29.1
14:15 1014 29.94 843 24.89 22.4 72.4 19 -2.3 27.8
14:20 1014 29.94 843 24.89 22.7 72.9 18 -2.6 27.3
14:25 1014 29.94 843 24.89 23.6 74.5 17 -2.8 27
14:30 1014 29.94 843 24.89 23.7 74.6 17 -2.3 27.8
14:35 1014 29.94 843 24.89 23.2 73.7 17 -2.8 27
14:40 1014 29.94 843 24.89 23.3 73.9 18 -1.9 28.6
14:45 1014 29.94 843 24.89 23.5 74.3 15 -4.6 23.7
14:50 1014 29.94 843 24.89 23 73.3 16 -4.2 24.5
14:55 1014 29.94 843 24.89 23.6 74.5 15 -4.6 23.6
15:00 1014 29.94 843 24.89 23.5 74.2 15 -4.8 23.4
15:05 1014 29.94 843 24.89 22.9 73.2 16 -4.4 24
15:10 1013 29.91 843 24.89 22.9 73.3 15 -4.6 23.8
15:15 1013 29.91 843 24.89 22.1 71.8 15 -5.3 22.4
15:20 1013 29.91 843 24.89 21.7 71.1 16 -5.4 22.2
15:25 1013 29.91 843 24.89 21.7 71.1 16 -5.5 22.2
15:30 1013 29.91 843 24.89 21.6 70.8 15 -5.8 21.6
15:35 1013 29.91 843 24.89 21.5 70.6 15 -5.7 21.7
15:40 1013 29.91 843 24.89 21.2 70.1 16 -5.8 21.6
15:45 1013 29.91 843 24.89 21.2 70.2 15 -6 21.1
15:50 1013 29.91 843 24.89 22 71.6 15 -5.8 21.6
15:55 1013 29.91 843 24.89 23.4 74.2 14 -4.9 23.1
16:00 1013 29.91 843 24.89 23.7 74.6 15 -4.5 23.9
16:05 1013 29.91 843 24.89 23.1 73.5 15 -5.1 22.9
16:10 1013 29.91 843 24.89 22.5 72.5 16 -4.8 23.3
16:15 1013 29.91 843 24.89 22.6 72.6 15 -5.2 22.6
16:20 1013 29.91 843 24.89 23.1 73.5 15 -4.7 23.5
16:25 1013 29.91 842 24.86 23.4 74 15 -4.4 24
16:30 1013 29.91 842 24.86 23.6 74.6 15 -4.2 24.5
16:35 1013 29.91 842 24.86 23.4 74.2 15 -4.9 23.2
16:40 1013 29.91 842 24.86 23.6 74.4 15 -4.5 23.9
16:45 1013 29.91 842 24.86 23.5 74.2 15 -4.3 24.3
16:50 1013 29.91 842 24.86 23.5 74.4 14 -4.9 23.2
16:55 1013 29.91 842 24.86 23.5 74.4 15 -4.5 24
17:00 1013 29.91 842 24.86 23.7 74.6 15 -4.7 23.6
17:05 1013 29.91 842 24.86 23.6 74.5 14 -5 23
17:10 1013 29.91 842 24.86 23.6 74.4 14 -4.9 23.3
17:15 1013 29.91 842 24.86 23.6 74.4 15 -4.7 23.5
17:20 1013 29.91 842 24.86 23.1 73.5 15 -5 23
17:25 1013 29.91 842 24.86 23.3 74 15 -4.2 24.4
17:30 1013 29.91 842 24.86 23 73.4 15 -5.1 22.8
17:35 1013 29.91 842 24.86 23.4 74.1 14 -5 22.9
17:40 1013 29.91 842 24.86 23.7 74.7 14 -4.9 23.2
17:45 1013 29.91 842 24.86 23.1 73.6 15 -5 22.9
17:50 1013 29.91 842 24.86 23.1 73.7 14 -5.5 22
17:55 1013 29.91 842 24.86 22.8 73 15 -5 23
18:00 1013 29.91 842 24.86 22.2 71.9 15 -5.4 22.3
18:05 1013 29.91 842 24.86 21.6 71 15 -5.8 21.6
18:10 1013 29.91 842 24.86 21.6 71 15 -5.7 21.7
18:15 1013 29.91 842 24.86 21.7 71.1 15 -5.6 22
18:20 1013 29.91 842 24.86 21.4 70.5 16 -5.5 22
18:25 1013 29.91 842 24.86 21.1 70 17 -5 23.1
18:30 1013 29.91 842 24.86 21 69.9 17 -5 23
18:35 1013 29.91 842 24.86 20.9 69.6 19 -3.6 25.6
18:40 1013 29.91 842 24.86 20.7 69.2 25 -0 31.9
18:45 1013 29.91 842 24.86 20.5 68.9 21 -2.2 28
18:50 1013 29.91 842 24.86 20.2 68.4 26 0.2 32.3
18:55 1013 29.91 842 24.86 19.7 67.4 27 0.3 32.5
19:00 1013 29.91 842 24.86 18.8 65.9 32 2 35.7
19:05 1013 29.91 843 24.89 17.9 64.2 32 1.1 33.9
19:10 1013 29.91 843 24.89 16.8 62.2 38 2.4 36.2
19:15 1013 29.91 843 24.89 16.5 61.8 33 0.3 32.5
19:20 1013 29.91 843 24.89 16 60.8 39 2.1 35.7
19:25 1013 29.91 843 24.89 15.8 60.5 33 -0.4 31.4
19:30 1013 29.91 843 24.89 15.7 60.2 35 0.5 32.8
19:35 1013 29.91 843 24.89 15.7 60.2 33 -0.4 31.3
19:40 1013 29.91 843 24.89 15.5 60 35 0.2 32.4
19:45 1014 29.94 843 24.89 15.5 59.9 35 0.4 32.7
19:50 1014 29.94 843 24.89 15.3 59.6 34 -0.3 31.5
19:55 1014 29.94 843 24.89 14.9 58.9 35 -0.4 31.3
20:00 1014 29.94 843 24.89 14.5 58.2 35 -0.7 30.8
20:05 1014 29.94 843 24.89 14.5 58.2 35 -0.8 30.6
20:10 1014 29.94 843 24.89 14.7 58.5 34 -1 30.2
20:15 1014 29.94 843 24.89 14.7 58.4 34 -1.1 30.1
20:20 1014 29.94 843 24.89 14.5 58.1 35 -0.7 30.7
20:25 1014 29.94 843 24.89 14.3 57.7 34 -1.1 30
20:30 1014 29.94 843 24.89 14.7 58.5 32 -1.5 29.3
20:35 1014 29.94 843 24.89 15.2 59.3 33 -1 30.2
20:40 1014 29.94 843 24.89 15.2 59.3 32 -1.1 30
20:45 1014 29.94 843 24.89 15.3 59.5 32 -1.3 29.6
20:50 1014 29.94 843 24.89 15.2 59.3 33 -1 30.1
20:55 1014 29.94 843 24.89 15.1 59.2 32 -1.2 29.8
21:00 1014 29.94 843 24.89 15 59 33 -0.9 30.4
21:05 1014 29.94 843 24.89 15 59 32 -1.5 29.2
21:10 1014 29.94 843 24.89 14.9 58.9 31 -2 28.4
21:15 1014 29.94 843 24.89 15 58.9 30 -2.5 27.4
21:20 1014 29.94 843 24.89 15.1 59.2 29 -2.6 27.3
21:25 1014 29.94 843 24.89 15.2 59.3 29 -2.8 27
21:30 1014 29.94 843 24.89 15.2 59.4 28 -3.2 26.2
21:35 1014 29.94 843 24.89 15.4 59.7 28 -2.9 26.7
21:40 1014 29.94 843 24.89 15.4 59.7 28 -2.9 26.8
21:45 1014 29.94 843 24.89 15.5 59.8 30 -2.1 28.3
21:50 1014 29.94 844 24.92 15.4 59.8 30 -1.9 28.5
21:55 1014 29.94 844 24.92 15.3 59.5 30 -2 28.4
22:00 1015 29.97 844 24.92 15.3 59.6 31 -1.5 29.2
22:05 1015 29.97 844 24.92 14.8 58.6 33 -1.4 29.5
22:10 1015 29.97 844 24.92 14.4 57.8 32 -1.9 28.6
22:15 1014 29.94 844 24.92 14.4 57.9 30 -2.7 27.1
22:20 1014 29.94 844 24.92 14.4 57.9 33 -1.7 28.9
22:25 1014 29.94 844 24.92 14 57.2 34 -1.7 28.9
22:30 1014 29.94 844 24.92 13.8 56.8 32 -2.4 27.7
22:35 1015 29.97 844 24.92 14 57.1 33 -2.1 28.3
22:40 1015 29.97 844 24.92 13.8 56.8 35 -1.4 29.5
22:45 1015 29.97 844 24.92 13.3 56 37 -1 30.3
22:50 1015 29.97 844 24.92 12.9 55.3 40 -0.4 31.2
22:55 1015 29.97 844 24.92 12.8 55 38 -1.2 29.9
23:00 1015 29.97 844 24.92 12.9 55.3 37 -1.2 29.8
23:05 1015 29.97 844 24.92 13.4 56.1 35 -1.9 28.6
23:10 1015 29.97 844 24.92 13.6 56.5 36 -1.2 29.9
23:15 1015 29.97 844 24.92 13.3 55.9 38 -0.6 30.9
23:20 1015 29.97 844 24.92 13 55.3 37 -1.2 29.8
23:25 1015 29.97 844 24.92 13.4 56.2 35 -1.5 29.3
23:30 1015 29.97 844 24.92 13.4 56.1 35 -1.5 29.3
23:35 1015 29.97 844 24.92 13 55.4 38 -1 30.2
23:40 1015 29.97 844 24.92 13.2 55.8 34 -2.4 27.7
23:45 1015 29.97 844 24.92 13.4 56.1 35 -1.6 29.1
23:50 1015 29.97 844 24.92 12.8 55 40 -0.5 31.1
23:55 1015 29.97 844 24.92 12.3 54.1 37 -1.9 28.7
24:00 1015 29.97 845 24.95 12.1 53.7 38 -1.6 29.1